• Join FlightAware (Why Join?)
  • Login
  • US Flag 
04:49PM EDT


 

Airport Tracker/Info


-or-


 

Live Flight TrackerFlight Track Log ✈ N5626Y ✈ 09-Sep-2013 ✈ KIKW - KMDW

Flight Track Log - Related Links

Times and Time Zones

All times are in EDT time to prevent confusion due to time zone crossing. See the N5626Y flight status page for this flight to view local times or setup timezone preferences in your user account.

Time Position Orientation Groundspeed Altitude Reporting Facility
EDT Latitude Longitude Course Direction KTS MPH feet Rate Location/Type
09:14PM 43.6044 -84.3706 226° Southwest 156 180 5,200  Level Chicago Center
09:15PM 43.5769 -84.4097 226° Southwest 142 163 7,200 1,860 Climbing Chicago Center
09:16PM 43.5506 -84.4539 231° Southwest 149 171 9,100 1,680 Climbing Chicago Center
09:17PM 43.5211 -84.5003 229° Southwest 158 182 10,700 1,560 Climbing Chicago Center
09:18PM 43.4817 -84.5661 230° Southwest 163 188 12,600 1,440 Climbing Cleveland Center
09:19PM 43.4486 -84.6183 229° Southwest 177 204 13,900 1,380 Climbing Cleveland Center
09:20PM 43.4153 -84.6703 229° Southwest 182 209 15,400 1,020 Climbing Cleveland Center
09:21PM 43.3814 -84.7272 231° Southwest 196 226 16,000 240 Climbing Chicago Center
09:22PM 43.3331 -84.7936 225° Southwest 238 274 16,000  Level Chicago Center
09:23PM 43.2628 -84.8375 204° Southwest 272 313 16,000  Level Chicago Center
09:24PM 43.1933 -84.8872 208° Southwest 278 320 16,000  Level Chicago Center
09:25PM 43.1233 -84.9356 207° Southwest 281 323 16,000  Level Chicago Center
09:26PM 43.0386 -84.9953 207° Southwest 283 326 16,000  Level Chicago Center
09:27PM 42.9689 -85.0447 207° Southwest 282 325 16,000  Level Chicago Center
09:28PM 42.8978 -85.0933 207° Southwest 284 327 16,000  Level Chicago Center
09:30PM 42.8275 -85.1422 207° Southwest 284 327 16,000  Level Chicago Center
09:31PM 42.7567 -85.1922 207° Southwest 285 328 16,000  Level Chicago Center
09:32PM 42.6858 -85.2411 207° Southwest 285 328 16,000  Level Chicago Center
09:33PM 42.6150 -85.2883 206° Southwest 284 327 16,000  Level Chicago Center
09:34PM 42.5439 -85.3369 207° Southwest 285 328 16,000  Level Chicago Center
09:35PM 42.4589 -85.3967 207° Southwest 286 329 16,000  Level Chicago Center
09:36PM 42.3878 -85.4453 207° Southwest 286 329 16,000  Level Chicago Center
09:37PM 42.3167 -85.4936 207° Southwest 286 329 16,000  Level Chicago Center
09:38PM 42.2439 -85.5425 206° Southwest 291 335 16,000  Level Chicago Center
09:39PM 42.1728 -85.5917 207° Southwest 289 333 16,000  Level Chicago Center
09:40PM 42.1008 -85.6397 206° Southwest 289 333 16,100  Climbing Chicago Center
09:41PM 42.0294 -85.6875 206° Southwest 288 331 16,100  Level Chicago Center
09:42PM 41.9519 -85.7439 208° Southwest 291 335 16,100  Level Chicago Center
09:43PM 41.8800 -85.7914 206° Southwest 290 334 16,100  Level Chicago Center
09:44PM 41.8092 -85.8392 207° Southwest 289 333 16,100  Level Chicago Center
09:45PM 41.7381 -85.8872 207° Southwest 289 333 16,100  Level Chicago Center
09:46PM 41.6517 -85.9442 206° Southwest 290 334 16,100 -360 Level Chicago Center
09:47PM 41.5792 -85.9922 206° Southwest 292 336 15,400 -1,020 Descending Chicago Center
09:48PM 41.5228 -86.0683 225° Southwest 310 357 14,100 -1,320 Descending Chicago Center
09:49PM 41.5222 -86.1819 270° West 309 356 12,800 -1,320 Descending Chicago Center
09:50PM 41.5219 -86.2928 270° West 303 349 11,500 -1,320 Descending Chicago Center
09:51PM 41.5231 -86.4056 271° West 304 350 10,200 -720 Descending Chicago Center
09:52PM 41.5222 -86.5103 269° West 291 335 10,100 -60 Descending Chicago Center
09:53PM 41.5197 -86.6072 268° West 271 312 10,100 -600 Level Chicago Center
09:54PM 41.5203 -86.7278 270° West 273 314 8,900 -1,200 Descending Chicago Center
09:55PM 41.5186 -86.8350 269° West 286 329 7,700 -1,260 Descending Chicago Center
09:56PM 41.5178 -86.9369 269° West 279 321 6,400 -840 Descending Chicago Center
09:57PM 41.5350 -87.0319 284° West 265 305 6,100 -240 Descending Chicago Center
09:58PM 41.5547 -87.1231 286° West 258 297 6,000 -540 Descending Chicago Center
09:59PM 41.5706 -87.2161 283° West 259 298 5,100 -1,020 Descending Chicago Center
10:00PM 41.5836 -87.3169 280° West 263 303 4,000 -540 Descending Chicago Center
10:01PM 41.6086 -87.4078 290° West 229 264 4,000  Level Chicago Center
10:02PM 41.6303 -87.4783 292° West 210 242 4,000 -60 Level Chicago Center
10:03PM 41.6472 -87.5411 290° West 190 219 3,900 -180 Descending Chicago Center
10:04PM 41.6717 -87.5900 304° West 169 194 3,700 -600 Descending Chicago Center
10:05PM 41.7028 -87.6392 310° West 170 196 2,700 -780 Descending Chicago Center
10:06PM 41.7472 -87.6717 331° Northwest 180 207 2,200 -600 Descending Chicago Center
10:07PM 41.7972 -87.6911 344° North 166 191 1,600 -600 Descending Chicago Center
10:08PM 41.8056 -87.7311 286° West 143 165 1,000 -360 Descending Chicago Center
10:09PM 41.7925 -87.7597 239° Southwest 133 153 900 -120 Descending Chicago Center